createdAt,value
2019-03-26T00:00:44.179Z,8.30
2019-03-26T00:04:24.000Z,18.83
2019-03-26T00:07:18.726Z,11.80
2019-03-26T00:09:50.293Z,10.07
2019-03-26T00:12:27.421Z,9.60
2019-03-26T00:14:58.688Z,9.37
2019-03-26T00:17:30.897Z,8.97
2019-03-26T00:20:02.201Z,7.27
2019-03-26T00:23:52.347Z,9.67
2019-03-26T00:27:22.635Z,8.33
2019-03-26T00:31:16.639Z,10.17
2019-03-26T00:36:32.704Z,7.80
2019-03-26T00:39:06.256Z,7.57
2019-03-26T00:41:37.491Z,7.73
2019-03-26T00:44:08.788Z,8.57
2019-03-26T00:46:40.498Z,12.13
2019-03-26T00:49:12.959Z,7.03
2019-03-26T00:51:44.278Z,8.80
2019-03-26T00:54:15.481Z,9.10
2019-03-26T00:56:46.675Z,9.83
2019-03-26T00:59:18.733Z,11.07
2019-03-26T01:02:51.065Z,6.80
2019-03-26T01:05:41.554Z,14.07
2019-03-26T01:09:03.519Z,8.57
2019-03-26T01:12:14.573Z,9.57
2019-03-26T01:14:47.040Z,8.10
2019-03-26T01:17:21.487Z,13.27
2019-03-26T01:19:53.116Z,8.57
2019-03-26T01:29:59.410Z,8.30
2019-03-26T01:36:39.328Z,7.80
2019-03-26T01:40:01.263Z,8.43
2019-03-26T01:42:51.723Z,8.37
2019-03-26T01:46:18.402Z,8.33
2019-03-26T01:49:55.241Z,15.33
2019-03-26T01:52:26.405Z,6.97
2019-03-26T01:55:27.992Z,8.93
2019-03-26T01:58:50.115Z,8.63
2019-03-26T02:01:54.862Z,11.77
2019-03-26T02:05:19.681Z,10.10
2019-03-26T02:07:51.074Z,8.27
2019-03-26T02:10:23.059Z,10.10
2019-03-26T02:12:54.286Z,9.50
2019-03-26T02:15:36.812Z,7.23
2019-03-26T02:18:10.304Z,10.07
2019-03-26T02:20:43.480Z,8.10
2019-03-26T02:23:14.891Z,10.27
2019-03-26T02:26:28.135Z,10.90
2019-03-26T02:29:36.503Z,8.37
2019-03-26T02:32:21.290Z,11.37
2019-03-26T02:34:52.641Z,8.30
2019-03-26T02:37:23.932Z,9.63
2019-03-26T02:40:13.055Z,7.67
2019-03-26T02:46:38.980Z,10.40
2019-03-26T02:49:11.250Z,10.60
2019-03-26T02:51:42.387Z,8.70
2019-03-26T02:54:13.772Z,9.37
2019-03-26T02:56:50.628Z,9.87
2019-03-26T02:59:21.922Z,8.63
2019-03-26T03:01:53.237Z,13.20
2019-03-26T03:04:24.728Z,8.50
2019-03-26T03:07:13.921Z,9.60
2019-03-26T03:10:29.923Z,10.27
2019-03-26T03:13:02.717Z,12.97
2019-03-26T03:15:34.182Z,12.17
2019-03-26T03:18:06.383Z,12.33
2019-03-26T03:20:37.648Z,10.47
2019-03-26T03:23:09.168Z,9.17
2019-03-26T03:25:40.685Z,7.50
2019-03-26T03:28:38.444Z,9.83
2019-03-26T03:31:09.680Z,13.83
2019-03-26T03:33:40.862Z,9.77
2019-03-26T03:36:18.520Z,10.53
2019-03-26T03:38:49.683Z,12.37
2019-03-26T03:41:23.361Z,9.63
2019-03-26T03:43:54.505Z,11.23
2019-03-26T03:46:45.327Z,9.57
2019-03-26T03:49:23.122Z,16.20
2019-03-26T03:52:42.630Z,8.80
2019-03-26T03:56:08.247Z,10.77
2019-03-26T03:59:28.023Z,15.07
2019-03-26T04:03:13.176Z,17.40
2019-03-26T04:05:44.501Z,14.93
2019-03-26T04:08:17.865Z,12.00
2019-03-26T04:10:49.156Z,16.10
2019-03-26T04:13:30.412Z,23.73
2019-03-26T04:19:34.109Z,13.23
2019-03-26T04:22:05.264Z,15.37
2019-03-26T04:24:36.505Z,15.30
2019-03-26T04:27:40.568Z,12.47
2019-03-26T04:30:34.099Z,22.70
2019-03-26T04:33:29.149Z,14.43
2019-03-26T04:36:00.676Z,27.70
2019-03-26T04:38:31.825Z,17.70
2019-03-26T04:41:10.800Z,17.93
2019-03-26T04:43:51.560Z,15.73
2019-03-26T04:46:46.304Z,16.50
2019-03-26T04:49:17.560Z,18.17
2019-03-26T04:51:52.203Z,18.40
2019-03-26T04:54:55.567Z,17.77
2019-03-26T04:58:03.297Z,31.60
2019-03-26T05:00:56.531Z,22.50
2019-03-26T05:04:58.134Z,20.20
2019-03-26T05:08:02.254Z,24.37
2019-03-26T05:10:33.705Z,46.17
2019-03-26T05:13:05.479Z,23.73
2019-03-26T05:15:41.189Z,25.97
2019-03-26T05:18:24.592Z,27.23
2019-03-26T05:21:22.602Z,28.87
2019-03-26T05:24:12.201Z,32.03
2019-03-26T05:26:52.041Z,28.27
2019-03-26T05:29:39.457Z,47.33
2019-03-26T05:32:11.725Z,30.00
2019-03-26T05:34:48.494Z,29.83
2019-03-26T05:37:19.776Z,26.80
2019-03-26T05:40:24.059Z,26.20
2019-03-26T05:43:08.759Z,25.37
2019-03-26T05:46:25.670Z,25.47
2019-03-26T05:49:30.610Z,40.97
2019-03-26T05:52:04.009Z,24.00
2019-03-26T05:54:35.293Z,27.50
2019-03-26T05:57:07.423Z,21.90
2019-03-26T05:59:42.111Z,26.20
2019-03-26T06:02:17.867Z,23.40
2019-03-26T06:05:00.874Z,20.33
2019-03-26T06:08:38.700Z,19.73
2019-03-26T06:12:17.742Z,33.53
2019-03-26T06:15:24.957Z,20.90
2019-03-26T06:18:46.267Z,28.00
2019-03-26T06:25:27.077Z,24.10
2019-03-26T06:28:31.078Z,22.97
2019-03-26T06:31:33.050Z,24.83
2019-03-26T06:34:20.169Z,20.87
2019-03-26T06:36:55.281Z,20.70
2019-03-26T06:39:28.911Z,28.17
2019-03-26T06:42:00.202Z,25.67
2019-03-26T06:44:31.881Z,21.30
2019-03-26T06:47:03.311Z,25.43
2019-03-26T06:49:48.107Z,25.43
2019-03-26T06:52:36.362Z,28.03
2019-03-26T06:55:10.103Z,22.17
2019-03-26T06:57:41.827Z,24.33
2019-03-26T07:00:58.615Z,22.17
2019-03-26T07:04:20.344Z,22.60
2019-03-26T07:07:35.692Z,23.03
2019-03-26T07:18:08.271Z,20.60
2019-03-26T07:20:47.659Z,30.60
2019-03-26T07:23:45.389Z,19.43
2019-03-26T07:26:15.496Z,26.77
2019-03-26T07:28:53.183Z,15.87
2019-03-26T07:31:28.307Z,17.60
2019-03-26T07:33:59.619Z,17.20
2019-03-26T07:36:33.812Z,21.37
2019-03-26T07:39:05.966Z,14.70
2019-03-26T07:41:43.334Z,11.97
2019-03-26T07:44:22.090Z,17.73
2019-03-26T07:46:54.104Z,16.40
2019-03-26T07:49:35.125Z,16.23
2019-03-26T07:52:18.987Z,13.53
2019-03-26T07:54:50.548Z,14.77
2019-03-26T07:57:33.733Z,19.70
2019-03-26T08:00:14.952Z,16.03
2019-03-26T08:03:30.168Z,13.40
2019-03-26T08:06:50.086Z,14.47
2019-03-26T08:09:21.592Z,7.50
2019-03-26T08:11:57.888Z,12.83
2019-03-26T08:14:31.048Z,9.20
2019-03-26T08:17:11.215Z,13.93
2019-03-26T08:19:45.111Z,13.00
2019-03-26T08:22:16.959Z,10.40
2019-03-26T08:24:53.320Z,8.13
2019-03-26T08:27:27.621Z,11.40
2019-03-26T08:30:02.753Z,10.97
2019-03-26T08:32:37.123Z,14.80
2019-03-26T08:35:30.611Z,8.17
2019-03-26T08:38:12.830Z,9.47
2019-03-26T08:44:05.075Z,17.43
2019-03-26T08:46:57.381Z,10.93
2019-03-26T08:50:37.713Z,11.33
2019-03-26T08:53:40.649Z,10.30
2019-03-26T08:56:16.272Z,8.57
2019-03-26T09:02:01.179Z,17.83
2019-03-26T09:04:32.904Z,15.50
2019-03-26T09:07:05.554Z,18.20
2019-03-26T09:09:39.892Z,10.40
2019-03-26T09:12:45.165Z,12.37
2019-03-26T09:16:03.486Z,13.80
2019-03-26T09:18:35.194Z,10.53
2019-03-26T09:21:17.672Z,12.63
2019-03-26T09:23:52.070Z,8.07
2019-03-26T09:26:42.995Z,8.43
2019-03-26T09:29:35.758Z,11.47
2019-03-26T09:32:08.324Z,10.17
2019-03-26T09:34:39.992Z,12.40
2019-03-26T09:37:11.397Z,5.70
2019-03-26T09:39:42.824Z,8.40
2019-03-26T09:42:14.169Z,15.90
2019-03-26T09:44:47.523Z,10.03
2019-03-26T09:47:19.029Z,8.20
2019-03-26T09:49:50.442Z,8.97
2019-03-26T09:52:49.162Z,10.80
2019-03-26T09:56:00.552Z,11.67
2019-03-26T09:58:35.830Z,10.77
2019-03-26T10:01:12.846Z,8.20
2019-03-26T10:08:19.768Z,8.27
2019-03-26T10:11:25.519Z,7.83
2019-03-26T10:14:29.535Z,10.33
2019-03-26T10:25:40.464Z,6.63
2019-03-26T10:29:29.158Z,11.23
2019-03-26T10:31:47.839Z,7.23
2019-03-26T10:35:10.635Z,11.07
2019-03-26T10:37:48.306Z,11.20
2019-03-26T10:40:33.546Z,11.23
2019-03-26T10:43:06.396Z,10.57
2019-03-26T10:45:38.904Z,8.20
2019-03-26T10:48:15.471Z,9.43
2019-03-26T10:50:47.572Z,9.50
2019-03-26T10:53:18.929Z,12.07
2019-03-26T10:55:50.427Z,9.10
2019-03-26T10:58:24.341Z,9.00
2019-03-26T11:01:17.464Z,10.70
2019-03-26T11:03:52.091Z,13.40
2019-03-26T11:06:23.839Z,9.73
2019-03-26T11:09:32.894Z,16.07
2019-03-26T11:12:06.922Z,9.93
2019-03-26T11:14:43.608Z,8.43
2019-03-26T11:17:23.641Z,12.40
2019-03-26T11:20:31.825Z,16.70
2019-03-26T11:23:17.899Z,13.93
2019-03-26T11:26:11.955Z,9.07
2019-03-26T11:28:49.752Z,7.87
2019-03-26T11:31:33.071Z,7.77
2019-03-26T11:34:12.545Z,7.47
2019-03-26T11:37:21.983Z,7.70
2019-03-26T11:40:07.492Z,6.53
2019-03-26T11:42:42.480Z,8.30
2019-03-26T11:45:19.541Z,7.43
2019-03-26T11:47:51.604Z,6.27
2019-03-26T11:50:26.974Z,7.73
2019-03-26T11:53:11.368Z,7.53
2019-03-26T11:55:43.855Z,5.07
2019-03-26T11:58:30.351Z,8.50
2019-03-26T12:04:44.739Z,4.70
2019-03-26T12:08:22.163Z,10.67
2019-03-26T12:10:57.453Z,7.60
2019-03-26T12:13:58.671Z,8.30
2019-03-26T12:17:15.217Z,10.73
2019-03-26T12:20:47.319Z,12.10
2019-03-26T12:23:39.191Z,4.40
2019-03-26T12:26:11.856Z,9.03
2019-03-26T12:28:46.412Z,6.03
2019-03-26T12:32:03.534Z,9.20
2019-03-26T12:34:26.932Z,7.07
2019-03-26T12:36:58.617Z,8.67
2019-03-26T12:39:31.182Z,5.17
2019-03-26T12:42:03.160Z,6.27
2019-03-26T12:44:40.483Z,5.27
2019-03-26T12:47:14.049Z,5.93
2019-03-26T12:49:58.746Z,7.13
2019-03-26T12:57:08.349Z,4.77
2019-03-26T13:04:39.189Z,6.03
2019-03-26T13:07:46.226Z,5.60
2019-03-26T13:10:17.773Z,4.30
2019-03-26T13:12:52.315Z,8.80
2019-03-26T13:15:25.091Z,8.17
2019-03-26T13:18:26.440Z,8.53
2019-03-26T13:21:03.933Z,3.40
2019-03-26T13:23:41.048Z,8.80
2019-03-26T13:26:12.716Z,6.23
2019-03-26T13:28:44.430Z,4.37
2019-03-26T13:31:16.176Z,5.30
2019-03-26T13:33:58.988Z,6.43
2019-03-26T13:37:09.764Z,9.67
2019-03-26T13:40:34.924Z,7.77
2019-03-26T13:43:07.166Z,9.17
2019-03-26T13:46:42.300Z,7.73
2019-03-26T13:52:54.772Z,6.57
2019-03-26T13:56:06.869Z,9.77
2019-03-26T13:59:25.319Z,3.57
2019-03-26T14:03:18.749Z,7.90
2019-03-26T14:06:19.796Z,5.33
2019-03-26T14:09:43.386Z,9.23
2019-03-26T14:12:55.801Z,3.57
2019-03-26T14:16:16.117Z,13.70
2019-03-26T14:18:54.233Z,6.03
2019-03-26T14:21:31.695Z,5.20
2019-03-26T14:24:13.151Z,4.37
2019-03-26T14:27:04.590Z,5.80
2019-03-26T14:29:47.142Z,7.67
2019-03-26T14:33:04.511Z,5.53
2019-03-26T14:35:50.154Z,8.80
2019-03-26T14:38:54.753Z,5.23
2019-03-26T14:46:46.908Z,9.17
2019-03-26T14:55:21.996Z,8.07
2019-03-26T14:58:49.549Z,6.43
2019-03-26T15:02:33.667Z,7.37
2019-03-26T15:09:30.882Z,10.47
2019-03-26T15:12:56.491Z,5.20
2019-03-26T15:15:29.601Z,6.77
2019-03-26T15:18:01.198Z,7.03
2019-03-26T15:20:35.642Z,5.60
2019-03-26T15:23:06.738Z,7.30
2019-03-26T15:25:41.059Z,8.80
2019-03-26T15:28:12.872Z,10.20
2019-03-26T15:30:48.777Z,8.63
2019-03-26T15:33:20.569Z,8.50
2019-03-26T15:35:52.117Z,8.53
2019-03-26T15:38:23.541Z,8.33
2019-03-26T15:40:56.889Z,7.93
2019-03-26T15:43:28.336Z,8.17
2019-03-26T15:46:00.164Z,9.90
2019-03-26T15:48:31.832Z,6.67
2019-03-26T15:51:03.448Z,5.67
2019-03-26T15:53:38.143Z,8.00
2019-03-26T15:56:11.642Z,5.67
2019-03-26T15:58:44.764Z,9.07
2019-03-26T16:01:16.630Z,7.57
2019-03-26T16:03:49.555Z,12.43
2019-03-26T16:06:21.446Z,9.03
2019-03-26T16:09:26.133Z,9.70
2019-03-26T16:11:58.436Z,6.70
2019-03-26T16:15:51.843Z,8.87
2019-03-26T16:17:21.890Z,5.27
2019-03-26T16:19:59.558Z,9.30
2019-03-26T16:22:34.650Z,8.67
2019-03-26T16:25:06.925Z,7.27
2019-03-26T16:27:38.819Z,8.87
2019-03-26T16:30:18.362Z,10.13
2019-03-26T16:32:51.592Z,7.17
2019-03-26T16:35:25.849Z,8.27
2019-03-26T16:37:59.803Z,10.90
2019-03-26T16:40:32.769Z,6.47
2019-03-26T16:56:38.743Z,9.20
2019-03-26T17:08:22.575Z,8.13
2019-03-26T17:11:35.732Z,7.47
2019-03-26T17:17:21.677Z,9.17
2019-03-26T17:20:07.439Z,8.27
2019-03-26T17:23:16.601Z,10.37
2019-03-26T17:27:13.154Z,9.83
2019-03-26T17:29:36.938Z,10.10
2019-03-26T17:32:15.712Z,6.63
2019-03-26T17:34:46.749Z,7.10
2019-03-26T17:37:17.438Z,8.43
2019-03-26T17:39:50.361Z,11.03
2019-03-26T17:42:51.449Z,5.47
2019-03-26T17:45:26.173Z,8.30
2019-03-26T17:47:57.453Z,8.37
2019-03-26T17:50:28.810Z,7.70
2019-03-26T17:53:05.160Z,8.23
2019-03-26T17:55:41.933Z,7.77
2019-03-26T17:58:15.522Z,9.47
2019-03-26T18:00:53.685Z,3.97
2019-03-26T18:03:27.020Z,7.50
2019-03-26T18:06:02.522Z,4.80
2019-03-26T18:08:43.044Z,7.97
2019-03-26T18:11:18.151Z,5.63
2019-03-26T18:13:53.341Z,3.63
2019-03-26T18:16:28.070Z,5.03
2019-03-26T18:19:02.456Z,4.80
2019-03-26T18:21:50.337Z,5.60
2019-03-26T18:24:10.174Z,6.37
2019-03-26T18:26:47.272Z,7.53
2019-03-26T18:29:24.989Z,5.50
2019-03-26T18:31:56.652Z,5.70
2019-03-26T18:34:30.690Z,9.07
2019-03-26T18:37:09.036Z,6.43
2019-03-26T18:39:47.113Z,8.37
2019-03-26T18:42:19.375Z,10.00
2019-03-26T18:44:55.538Z,10.20
2019-03-26T18:47:33.492Z,10.67
2019-03-26T18:50:11.692Z,9.10
2019-03-26T18:52:43.387Z,8.77
2019-03-26T18:55:16.544Z,9.37
2019-03-26T18:57:57.808Z,10.43
2019-03-26T19:00:39.993Z,8.97
2019-03-26T19:03:11.556Z,9.47
2019-03-26T19:05:47.935Z,9.40
2019-03-26T19:08:23.082Z,11.17
2019-03-26T19:10:54.613Z,13.10
2019-03-26T19:13:26.285Z,8.70
2019-03-26T19:16:22.833Z,9.20
2019-03-26T19:18:59.614Z,8.37
2019-03-26T19:21:40.400Z,9.67
2019-03-26T19:24:18.201Z,11.97
2019-03-26T19:26:56.923Z,10.73
2019-03-26T19:29:32.714Z,8.57
2019-03-26T19:32:03.928Z,9.43
2019-03-26T19:34:37.282Z,13.13
2019-03-26T19:37:12.017Z,11.60
2019-03-26T19:39:49.992Z,10.30
2019-03-26T19:42:33.160Z,9.83
2019-03-26T19:45:05.673Z,6.63
2019-03-26T19:47:42.480Z,7.20
2019-03-26T19:50:19.607Z,10.07
2019-03-26T19:52:54.399Z,11.57
2019-03-26T19:55:34.770Z,9.13
2019-03-26T19:58:11.426Z,12.67
2019-03-26T20:00:44.401Z,9.10
2019-03-26T20:03:28.394Z,10.97
2019-03-26T20:06:14.444Z,10.57
2019-03-26T20:08:51.916Z,8.03
2019-03-26T20:11:29.993Z,8.87
2019-03-26T20:14:19.563Z,7.93
2019-03-26T20:16:58.220Z,8.27
2019-03-26T20:19:39.947Z,6.20
2019-03-26T20:22:22.237Z,8.20
2019-03-26T20:25:18.502Z,8.23
2019-03-26T20:27:50.092Z,9.77
2019-03-26T20:30:22.613Z,10.57
2019-03-26T20:33:08.390Z,7.83
2019-03-26T20:35:40.205Z,7.60
2019-03-26T20:38:16.165Z,4.90
2019-03-26T20:40:50.534Z,9.83
2019-03-26T20:43:22.777Z,7.90
2019-03-26T20:45:59.044Z,6.97
2019-03-26T20:48:37.855Z,4.40
2019-03-26T20:51:13.420Z,6.20
2019-03-26T20:53:53.173Z,5.70
2019-03-26T20:56:28.393Z,5.67
2019-03-26T20:59:02.623Z,5.27
2019-03-26T21:01:48.743Z,7.57
2019-03-26T21:04:25.466Z,11.73
2019-03-26T21:07:08.450Z,7.27
2019-03-26T21:09:44.349Z,6.93
2019-03-26T21:12:22.712Z,6.13
2019-03-26T21:14:58.552Z,6.33
2019-03-26T21:17:32.657Z,5.53
2019-03-26T21:20:26.871Z,5.37
2019-03-26T21:23:14.419Z,9.13
2019-03-26T21:29:40.962Z,8.23
2019-03-26T21:32:41.224Z,6.70
2019-03-26T21:35:44.665Z,8.47
2019-03-26T21:38:21.275Z,7.00
2019-03-26T21:41:12.199Z,7.80
2019-03-26T21:44:12.595Z,6.13
2019-03-26T21:47:01.220Z,12.33
2019-03-26T21:49:56.330Z,8.23
2019-03-26T21:52:28.562Z,4.27
2019-03-26T21:55:04.117Z,5.60
2019-03-26T21:57:39.365Z,5.00
2019-03-26T22:00:15.025Z,4.70
2019-03-26T22:02:57.315Z,4.77
2019-03-26T22:05:31.420Z,5.20
2019-03-26T22:08:12.745Z,3.83
2019-03-26T22:10:55.313Z,8.23
2019-03-26T22:13:27.083Z,7.17
2019-03-26T22:16:02.099Z,5.17
2019-03-26T22:18:46.550Z,5.00
2019-03-26T22:21:37.495Z,6.10
2019-03-26T22:24:19.697Z,8.50
2019-03-26T22:27:03.027Z,6.40
2019-03-26T22:29:50.679Z,8.83
2019-03-26T22:35:57.008Z,6.97
2019-03-26T22:38:36.529Z,7.87
2019-03-26T22:41:18.805Z,13.10
2019-03-26T22:43:55.400Z,11.20
2019-03-26T22:50:22.382Z,8.30
2019-03-26T22:53:03.107Z,6.87
2019-03-26T22:55:57.430Z,9.97
2019-03-26T22:59:07.373Z,9.67
2019-03-26T23:02:21.746Z,8.23
2019-03-26T23:05:41.863Z,6.23
2019-03-26T23:08:16.054Z,5.10
2019-03-26T23:10:53.348Z,4.60
2019-03-26T23:13:52.728Z,6.23
2019-03-26T23:16:53.869Z,5.30
2019-03-26T23:19:56.994Z,5.90
2019-03-26T23:22:47.314Z,6.53
2019-03-26T23:25:25.178Z,7.37
2019-03-26T23:28:01.241Z,7.20
2019-03-26T23:30:34.710Z,10.60
2019-03-26T23:33:09.063Z,6.73
2019-03-26T23:35:49.391Z,7.97
2019-03-26T23:38:27.350Z,6.30
2019-03-26T23:41:04.331Z,7.27
2019-03-26T23:43:43.897Z,6.20
2019-03-26T23:46:18.311Z,8.63
2019-03-26T23:48:53.215Z,6.83
2019-03-26T23:51:28.088Z,10.03
2019-03-26T23:54:28.081Z,9.50
2019-03-26T23:57:17.091Z,10.67
2019-03-26T23:59:49.354Z,10.77
